Terminal Aerodrome Forecast
Issued by NWS

Current Version | Previous Version | Text Only | Print | Product List | Glossary Off
Versions: 1 2 3 4 5 6 7 8 9 10 11 12 13 14 15 16 17 18 19

000
FTUS41 KRNK 170520
TAFLWB
TAF
KLWB 170520Z 1706/1806 00000KT P6SM OVC018
     FM171000 10004KT P6SM BKN025
     FM171800 13004KT 2SM RA OVC035
     FM172000 12004KT 2SM -SN OVC035
     FM172300 VRB03KT 3SM -SNPL OVC025
     FM180100 VRB03KT P6SM OVC025=

USA.gov is the U.S. government's official web portal to all federal, state and local government web resources and services.